Blountstown, Florida
Current Conditions -  °F | °C
As of 12:53 PM on Friday 24 Oct 2014 (Local Time) from KMAI Reporting Station
Clear Clear  
Wind Chill: 73°   Ceiling: Unl
Heat Index: 73°   Visibility: 10mi
Dew Point: 46°   Wind: 5mph
Humidity: 38%   Direction: NA
Pressure: 30.01"   Gusts: NA
Location:  30.44°N, 85.05°W
Report Text: KMAI 241753Z AUTO VRB04KT 10SM CLR 23/08 A3001 RMK AO2 SLP160 60000 T02280078 10239 20094 58021 $
Loading
Personal Weather Stations






























Interactive Weather Map New forecast layout! Learn more

10-Day Weather Forecast

Advertisements
Track Severe Weather on mobile